createdAt,value
2019-06-08T00:00:35.780Z,78.90
2019-06-08T00:03:06.822Z,78.50
2019-06-08T00:05:37.836Z,78.50
2019-06-08T00:08:12.907Z,78.60
2019-06-08T00:10:44.711Z,78.30
2019-06-08T00:13:16.952Z,78.30
2019-06-08T00:15:49.036Z,78.40
2019-06-08T00:18:20.051Z,78.30
2019-06-08T00:20:51.349Z,78.00
2019-06-08T00:23:22.541Z,78.50
2019-06-08T00:25:54.219Z,78.40
2019-06-08T00:28:25.895Z,78.40
2019-06-08T00:31:00.459Z,78.40
2019-06-08T00:33:31.509Z,78.70
2019-06-08T00:36:02.596Z,78.80
2019-06-08T00:38:33.636Z,78.60
2019-06-08T00:41:06.194Z,79.20
2019-06-08T00:43:37.237Z,79.10
2019-06-08T00:46:09.577Z,79.20
2019-06-08T00:48:40.718Z,79.20
2019-06-08T00:51:11.754Z,78.30
2019-06-08T00:53:43.886Z,78.20
2019-06-08T00:59:05.241Z,77.70
2019-06-08T01:01:43.038Z,77.30
2019-06-08T01:04:19.094Z,77.10
2019-06-08T01:06:56.872Z,76.60
2019-06-08T01:09:31.197Z,76.60
2019-06-08T01:12:08.024Z,76.40
2019-06-08T01:14:40.940Z,76.20
2019-06-08T01:17:15.233Z,76.00
2019-06-08T01:19:46.800Z,75.80
2019-06-08T01:22:21.621Z,75.80
2019-06-08T01:24:52.922Z,75.10
2019-06-08T01:27:26.157Z,74.90
2019-06-08T01:29:58.989Z,75.00
2019-06-08T01:32:41.309Z,74.60
2019-06-08T01:35:11.990Z,74.60
2019-06-08T01:37:43.216Z,74.10
2019-06-08T01:40:15.867Z,74.00
2019-06-08T01:42:48.698Z,73.90
2019-06-08T01:45:25.866Z,73.80
2019-06-08T01:48:18.717Z,73.50
2019-06-08T01:50:36.173Z,73.60
2019-06-08T01:53:07.875Z,74.00
2019-06-08T01:55:45.198Z,74.00
2019-06-08T01:58:16.089Z,73.30
2019-06-08T02:00:48.744Z,73.40
2019-06-08T02:03:21.608Z,73.40
2019-06-08T02:05:54.313Z,73.10
2019-06-08T02:08:26.457Z,73.10
2019-06-08T02:10:59.780Z,72.10
2019-06-08T02:13:33.235Z,70.50
2019-06-08T02:16:04.526Z,72.00
2019-06-08T02:18:44.066Z,72.20
2019-06-08T02:21:09.077Z,70.10
2019-06-08T02:23:42.768Z,69.20
2019-06-08T02:26:13.900Z,70.10
2019-06-08T02:28:47.705Z,71.00
2019-06-08T02:31:19.052Z,71.00
2019-06-08T02:33:50.498Z,71.00
2019-06-08T02:36:22.362Z,69.10
2019-06-08T02:39:02.092Z,70.30
2019-06-08T02:41:35.190Z,70.30
2019-06-08T02:44:06.651Z,67.80
2019-06-08T02:46:41.377Z,69.30
2019-06-08T02:49:12.338Z,69.40
2019-06-08T02:51:46.483Z,70.10
2019-06-08T02:54:22.130Z,68.60
2019-06-08T02:56:55.682Z,68.00
2019-06-08T02:59:31.310Z,65.80
2019-06-08T03:02:09.130Z,64.90
2019-06-08T03:04:45.109Z,67.40
2019-06-08T03:07:23.401Z,65.30
2019-06-08T03:10:09.481Z,67.60
2019-06-08T03:12:40.364Z,67.40
2019-06-08T03:15:23.202Z,66.70
2019-06-08T03:17:58.784Z,65.50
2019-06-08T03:20:31.631Z,65.80
2019-06-08T03:23:08.130Z,66.90
2019-06-08T03:25:53.171Z,64.50
2019-06-08T03:28:21.959Z,65.20
2019-06-08T03:30:57.250Z,65.80
2019-06-08T03:46:43.422Z,59.10
2019-06-08T03:49:14.657Z,61.80
2019-06-08T03:51:49.323Z,61.30
2019-06-08T03:54:28.244Z,62.70
2019-06-08T03:56:59.329Z,61.30
2019-06-08T03:59:33.240Z,64.20
2019-06-08T04:02:04.701Z,62.30
2019-06-08T04:04:37.716Z,60.50
2019-06-08T04:07:09.075Z,62.80
2019-06-08T04:09:41.575Z,60.50
2019-06-08T04:15:57.180Z,63.90
2019-06-08T04:18:28.996Z,62.90
2019-06-08T04:21:01.433Z,63.20
2019-06-08T04:23:32.921Z,62.50
2019-06-08T04:26:04.114Z,63.10
2019-06-08T04:28:44.727Z,59.00
2019-06-08T04:31:20.439Z,58.80
2019-06-08T04:33:51.686Z,59.00
2019-06-08T04:40:01.227Z,61.10
2019-06-08T04:42:31.823Z,61.70
2019-06-08T04:45:02.844Z,60.70
2019-06-08T04:47:35.030Z,59.40
2019-06-08T04:50:22.030Z,58.90
2019-06-08T04:52:40.878Z,59.00
2019-06-08T04:55:12.294Z,59.50
2019-06-08T04:57:47.575Z,59.10
2019-06-08T05:00:17.182Z,59.60
2019-06-08T05:02:53.337Z,57.60
2019-06-08T05:08:51.509Z,59.20
2019-06-08T05:11:22.377Z,61.50
2019-06-08T05:13:57.587Z,60.40
2019-06-08T05:16:28.729Z,57.60
2019-06-08T05:19:01.515Z,59.20
2019-06-08T05:21:34.833Z,59.00
2019-06-08T05:24:09.240Z,59.30
2019-06-08T05:26:41.680Z,57.80
2019-06-08T05:29:13.558Z,57.70
2019-06-08T05:31:45.494Z,56.00
2019-06-08T05:34:18.857Z,57.20
2019-06-08T05:36:52.296Z,58.80
2019-06-08T05:39:23.313Z,58.10
2019-06-08T05:41:54.717Z,58.80
2019-06-08T05:44:26.090Z,59.20
2019-06-08T05:46:57.054Z,58.70
2019-06-08T05:49:30.108Z,58.70
2019-06-08T05:52:00.881Z,60.10
2019-06-08T05:54:32.290Z,60.20
2019-06-08T05:57:03.253Z,60.10
2019-06-08T05:59:34.350Z,60.40
2019-06-08T06:02:06.676Z,58.80
2019-06-08T06:04:37.696Z,59.80
2019-06-08T06:07:12.858Z,60.60
2019-06-08T06:09:46.633Z,57.70
2019-06-08T06:18:37.622Z,60.40
2019-06-08T06:24:17.150Z,59.80
2019-06-08T06:26:48.031Z,58.30
2019-06-08T06:29:22.237Z,58.50
2019-06-08T06:31:53.405Z,58.40
2019-06-08T06:34:26.318Z,58.90
2019-06-08T06:36:57.650Z,58.90
2019-06-08T06:39:33.012Z,59.70
2019-06-08T06:42:06.814Z,58.70
2019-06-08T06:44:42.070Z,55.80
2019-06-08T06:47:16.857Z,57.30
2019-06-08T06:49:50.638Z,57.70
2019-06-08T06:55:16.498Z,57.30
2019-06-08T06:57:47.606Z,59.20
2019-06-08T07:00:21.052Z,57.10
2019-06-08T07:02:51.923Z,58.70
2019-06-08T07:05:23.355Z,57.80
2019-06-08T07:07:55.266Z,57.60
2019-06-08T07:10:27.415Z,58.40
2019-06-08T07:13:00.913Z,57.30
2019-06-08T07:15:41.106Z,57.30
2019-06-08T07:18:06.787Z,57.30
2019-06-08T07:20:42.135Z,56.00
2019-06-08T07:23:12.955Z,57.50
2019-06-08T07:25:48.397Z,59.40
2019-06-08T07:28:19.393Z,58.40
2019-06-08T07:30:53.057Z,58.70
2019-06-08T07:33:28.607Z,57.10
2019-06-08T07:35:59.845Z,57.30
2019-06-08T07:38:31.097Z,56.60
2019-06-08T07:41:05.897Z,56.80
2019-06-08T07:43:37.058Z,56.40
2019-06-08T07:46:11.102Z,56.20
2019-06-08T07:48:42.318Z,56.80
2019-06-08T07:51:14.068Z,55.90
2019-06-08T07:53:47.059Z,56.20
2019-06-08T07:56:18.383Z,57.50
2019-06-08T07:58:53.228Z,56.80
2019-06-08T08:01:36.242Z,56.80
2019-06-08T08:04:00.619Z,57.80
2019-06-08T08:06:32.125Z,56.60
2019-06-08T08:09:06.621Z,56.40
2019-06-08T08:11:41.875Z,56.20
2019-06-08T08:14:13.911Z,56.80
2019-06-08T08:16:48.772Z,56.50
2019-06-08T08:19:19.900Z,56.30
2019-06-08T08:21:52.951Z,55.70
2019-06-08T08:24:27.180Z,56.40
2019-06-08T08:33:29.830Z,56.20
2019-06-08T08:36:01.866Z,56.90
2019-06-08T08:38:33.361Z,57.20
2019-06-08T08:41:07.662Z,55.70
2019-06-08T08:43:37.721Z,56.10
2019-06-08T08:46:11.442Z,56.10
2019-06-08T08:48:42.687Z,57.40
2019-06-08T08:51:13.783Z,55.90
2019-06-08T08:53:48.588Z,56.20
2019-06-08T08:56:18.996Z,57.90
2019-06-08T08:58:52.420Z,57.00
2019-06-08T09:01:23.847Z,58.40
2019-06-08T09:04:08.875Z,57.80
2019-06-08T09:06:39.598Z,58.30
2019-06-08T09:09:13.818Z,58.70
2019-06-08T09:11:56.935Z,57.60
2019-06-08T09:14:27.922Z,57.50
2019-06-08T09:17:00.509Z,57.30
2019-06-08T09:19:30.659Z,57.00
2019-06-08T09:22:03.921Z,57.30
2019-06-08T09:24:40.781Z,56.60
2019-06-08T09:27:14.393Z,56.60
2019-06-08T09:29:47.999Z,56.60
2019-06-08T09:32:19.309Z,56.60
2019-06-08T09:34:59.589Z,56.40
2019-06-08T09:37:29.877Z,56.80
2019-06-08T09:40:02.588Z,57.30
2019-06-08T09:42:36.816Z,57.60
2019-06-08T09:45:09.869Z,57.20
2019-06-08T09:47:44.482Z,57.40
2019-06-08T09:50:18.960Z,56.80
2019-06-08T09:53:06.483Z,55.90
2019-06-08T09:55:28.694Z,57.40
2019-06-08T09:58:05.011Z,56.90
2019-06-08T10:00:33.969Z,55.80
2019-06-08T10:03:06.496Z,56.00
2019-06-08T10:05:38.821Z,56.00
2019-06-08T10:08:13.549Z,56.60
2019-06-08T10:10:44.697Z,57.40
2019-06-08T10:13:18.707Z,57.30
2019-06-08T10:15:51.525Z,57.70
2019-06-08T10:18:22.785Z,58.20
2019-06-08T10:20:54.689Z,57.90
2019-06-08T10:23:33.503Z,57.90
2019-06-08T10:26:00.761Z,57.80
2019-06-08T10:28:33.763Z,57.90
2019-06-08T10:31:05.249Z,57.90
2019-06-08T10:33:37.722Z,57.60
2019-06-08T10:36:12.248Z,58.20
2019-06-08T10:38:41.963Z,58.10
2019-06-08T10:41:19.115Z,58.20
2019-06-08T10:43:48.056Z,58.80
2019-06-08T10:46:20.803Z,58.10
2019-06-08T10:48:51.115Z,58.20
2019-06-08T10:51:22.221Z,58.40
2019-06-08T10:53:53.807Z,58.70
2019-06-08T10:56:25.080Z,58.80
2019-06-08T10:58:58.034Z,59.00
2019-06-08T11:01:30.098Z,59.50
2019-06-08T11:04:01.909Z,59.80
2019-06-08T11:06:33.790Z,60.10
2019-06-08T11:09:11.963Z,60.00
2019-06-08T11:11:38.488Z,60.20
2019-06-08T11:14:12.532Z,60.50
2019-06-08T11:16:43.562Z,61.50
2019-06-08T11:19:14.646Z,61.00
2019-06-08T11:21:48.093Z,61.50
2019-06-08T11:24:24.401Z,61.50
2019-06-08T11:26:51.281Z,61.40
2019-06-08T11:29:22.216Z,61.60
2019-06-08T11:31:54.439Z,61.60
2019-06-08T11:34:29.202Z,61.80
2019-06-08T11:37:01.903Z,62.30
2019-06-08T11:39:32.926Z,62.50
2019-06-08T11:42:04.404Z,62.20
2019-06-08T11:44:39.031Z,62.20
2019-06-08T11:47:12.997Z,62.20
2019-06-08T11:49:42.525Z,62.50
2019-06-08T11:52:14.127Z,62.40
2019-06-08T11:54:45.083Z,62.70
2019-06-08T11:57:17.625Z,62.90
2019-06-08T11:59:51.075Z,63.00
2019-06-08T12:02:22.058Z,62.80
2019-06-08T12:04:53.143Z,63.00
2019-06-08T12:07:29.976Z,63.00
2019-06-08T12:10:04.954Z,63.00
2019-06-08T12:12:38.334Z,63.10
2019-06-08T12:15:11.653Z,63.70
2019-06-08T12:17:41.751Z,63.40
2019-06-08T12:20:17.553Z,64.10
2019-06-08T12:22:48.383Z,63.40
2019-06-08T12:25:19.777Z,63.40
2019-06-08T12:27:52.700Z,63.40
2019-06-08T12:30:38.486Z,63.40
2019-06-08T12:33:18.634Z,63.50
2019-06-08T12:35:48.899Z,63.70
2019-06-08T12:38:29.978Z,63.80
2019-06-08T12:41:09.149Z,63.70
2019-06-08T12:43:38.642Z,63.70
2019-06-08T12:46:11.675Z,63.70
2019-06-08T12:48:46.310Z,63.40
2019-06-08T12:51:19.903Z,63.50
2019-06-08T12:53:54.106Z,63.50
2019-06-08T12:56:29.884Z,63.30
2019-06-08T12:59:13.004Z,63.20
2019-06-08T13:01:44.636Z,63.10
2019-06-08T13:04:15.878Z,63.10
2019-06-08T13:06:58.354Z,63.10
2019-06-08T13:09:30.025Z,63.10
2019-06-08T13:12:13.063Z,63.50
2019-06-08T13:14:47.754Z,63.50
2019-06-08T13:17:21.936Z,63.50
2019-06-08T13:19:54.471Z,63.50
2019-06-08T13:22:35.895Z,63.40
2019-06-08T13:25:19.291Z,63.60
2019-06-08T13:27:58.257Z,63.60
2019-06-08T13:30:32.038Z,63.30
2019-06-08T13:33:01.409Z,63.20
2019-06-08T13:35:33.980Z,63.80
2019-06-08T13:38:12.549Z,63.30
2019-06-08T13:40:53.320Z,63.70
2019-06-08T13:43:30.541Z,63.60
2019-06-08T13:46:08.050Z,63.90
2019-06-08T13:48:38.051Z,64.10
2019-06-08T13:51:21.483Z,64.20
2019-06-08T13:53:50.143Z,64.20
2019-06-08T13:56:35.102Z,64.20
2019-06-08T13:59:07.941Z,64.40
2019-06-08T14:01:39.220Z,64.50
2019-06-08T14:04:10.214Z,65.00
2019-06-08T14:06:41.408Z,64.70
2019-06-08T14:09:14.313Z,64.70
2019-06-08T14:11:47.570Z,64.80
2019-06-08T14:14:19.952Z,65.00
2019-06-08T14:16:50.618Z,65.80
2019-06-08T14:19:23.250Z,65.30
2019-06-08T14:21:56.090Z,65.60
2019-06-08T14:24:32.490Z,66.50
2019-06-08T14:26:58.617Z,66.20
2019-06-08T14:29:30.531Z,66.00
2019-06-08T14:32:01.603Z,66.00
2019-06-08T14:34:32.550Z,66.90
2019-06-08T14:37:05.317Z,66.80
2019-06-08T14:39:36.667Z,66.60
2019-06-08T14:42:08.343Z,67.40
2019-06-08T14:44:39.365Z,67.40
2019-06-08T14:47:12.056Z,67.50
2019-06-08T14:49:43.819Z,67.40
2019-06-08T14:52:14.809Z,67.30
2019-06-08T14:54:51.271Z,67.90
2019-06-08T14:57:23.281Z,67.40
2019-06-08T14:59:56.420Z,68.10
2019-06-08T15:02:28.624Z,68.00
2019-06-08T15:04:59.158Z,68.80
2019-06-08T15:07:32.564Z,68.00
2019-06-08T15:10:02.746Z,67.70
2019-06-08T15:12:34.063Z,67.80
2019-06-08T15:15:11.173Z,68.90
2019-06-08T15:17:47.611Z,67.90
2019-06-08T15:20:17.853Z,67.70
2019-06-08T15:23:03.300Z,68.00
2019-06-08T15:25:39.185Z,67.90
2019-06-08T15:28:24.630Z,69.40
2019-06-08T15:30:59.764Z,68.80
2019-06-08T15:33:32.203Z,68.60
2019-06-08T15:36:03.002Z,68.70
2019-06-08T15:38:38.283Z,69.40
2019-06-08T15:41:09.757Z,69.20
2019-06-08T15:43:48.848Z,68.70
2019-06-08T15:46:19.970Z,69.10
2019-06-08T15:48:51.317Z,69.20
2019-06-08T15:51:33.375Z,69.20
2019-06-08T15:54:01.336Z,69.20
2019-06-08T15:56:45.765Z,69.40
2019-06-08T15:59:08.837Z,69.10
2019-06-08T16:01:38.699Z,69.20
2019-06-08T16:04:10.126Z,70.00
2019-06-08T16:06:40.994Z,69.40
2019-06-08T16:09:12.707Z,70.20
2019-06-08T16:11:44.129Z,69.70
2019-06-08T16:14:15.416Z,70.00
2019-06-08T16:16:46.288Z,69.00
2019-06-08T16:19:17.336Z,69.60
2019-06-08T16:21:48.221Z,70.80
2019-06-08T16:24:18.997Z,69.80
2019-06-08T16:26:53.223Z,70.00
2019-06-08T16:29:22.055Z,70.70
2019-06-08T16:31:53.161Z,70.70
2019-06-08T16:34:24.210Z,69.80
2019-06-08T16:36:55.195Z,69.70
2019-06-08T16:39:26.891Z,70.70
2019-06-08T16:41:57.930Z,70.00
2019-06-08T16:44:29.999Z,71.10
2019-06-08T16:47:01.041Z,71.30
2019-06-08T16:49:33.279Z,71.90
2019-06-08T16:52:04.311Z,72.30
2019-06-08T16:54:35.244Z,70.60
2019-06-08T16:57:10.830Z,71.00
2019-06-08T16:59:38.987Z,72.20
2019-06-08T17:02:10.521Z,72.10
2019-06-08T17:04:41.874Z,73.10
2019-06-08T17:07:13.221Z,72.50
2019-06-08T17:09:44.697Z,71.40
2019-06-08T17:12:15.824Z,73.30
2019-06-08T17:14:47.618Z,73.60
2019-06-08T17:17:19.491Z,72.90
2019-06-08T17:19:50.736Z,73.00
2019-06-08T17:22:22.378Z,72.30
2019-06-08T17:24:53.205Z,72.90
2019-06-08T17:27:27.064Z,73.10
2019-06-08T17:29:58.165Z,73.30
2019-06-08T17:32:29.675Z,73.60
2019-06-08T17:35:00.824Z,73.80
2019-06-08T17:37:31.854Z,73.70
2019-06-08T17:40:03.996Z,73.00
2019-06-08T17:42:35.216Z,73.40
2019-06-08T17:45:08.415Z,73.50
2019-06-08T17:47:40.572Z,73.00
2019-06-08T17:50:13.087Z,72.90
2019-06-08T17:52:44.101Z,73.30
2019-06-08T17:55:15.325Z,73.00
2019-06-08T17:57:53.272Z,73.50
2019-06-08T18:00:20.222Z,73.20
2019-06-08T18:02:51.363Z,73.50
2019-06-08T18:05:22.349Z,73.50
2019-06-08T18:07:54.151Z,73.40
2019-06-08T18:10:27.302Z,73.70
2019-06-08T18:12:58.752Z,73.30
2019-06-08T18:15:29.920Z,73.00
2019-06-08T18:18:01.315Z,73.30
2019-06-08T18:20:32.460Z,73.50
2019-06-08T18:23:04.337Z,73.80
2019-06-08T18:25:38.740Z,73.80
2019-06-08T18:28:12.878Z,73.70
2019-06-08T18:30:42.909Z,74.00
2019-06-08T18:33:13.622Z,74.10
2019-06-08T18:35:46.030Z,74.40
2019-06-08T18:38:17.896Z,75.00
2019-06-08T18:40:49.270Z,75.10
2019-06-08T18:43:20.330Z,74.90
2019-06-08T18:45:51.823Z,74.90
2019-06-08T18:48:22.969Z,73.80
2019-06-08T18:50:53.899Z,74.70
2019-06-08T18:53:27.028Z,74.20
2019-06-08T18:55:58.151Z,74.30
2019-06-08T18:58:29.246Z,74.10
2019-06-08T19:01:00.279Z,74.10
2019-06-08T19:03:31.078Z,74.70
2019-06-08T19:06:05.241Z,75.00
2019-06-08T19:08:40.260Z,74.60
2019-06-08T19:11:09.799Z,75.10
2019-06-08T19:13:41.188Z,74.90
2019-06-08T19:16:12.334Z,75.20
2019-06-08T19:18:47.627Z,76.60
2019-06-08T19:21:17.676Z,76.10
2019-06-08T19:23:50.329Z,76.40
2019-06-08T19:26:21.032Z,77.00
2019-06-08T19:28:54.094Z,76.50
2019-06-08T19:31:24.590Z,76.00
2019-06-08T19:33:58.068Z,76.60
2019-06-08T19:36:28.727Z,76.40
2019-06-08T19:38:59.662Z,76.50
2019-06-08T19:41:30.991Z,76.00
2019-06-08T19:44:01.990Z,76.60
2019-06-08T19:46:32.895Z,75.90
2019-06-08T19:49:03.987Z,76.70
2019-06-08T19:51:35.685Z,76.70
2019-06-08T19:54:07.078Z,76.60
2019-06-08T19:56:38.981Z,76.90
2019-06-08T19:59:10.735Z,76.60
2019-06-08T20:01:41.767Z,77.40
2019-06-08T20:04:18.183Z,76.10
2019-06-08T20:06:50.714Z,76.90
2019-06-08T20:09:21.226Z,77.10
2019-06-08T20:11:56.489Z,77.80
2019-06-08T20:14:26.568Z,76.90
2019-06-08T20:16:57.989Z,76.90
2019-06-08T20:19:29.049Z,77.70
2019-06-08T20:22:00.113Z,77.70
2019-06-08T20:24:31.078Z,76.10
2019-06-08T20:27:02.041Z,75.60
2019-06-08T20:29:33.243Z,76.60
2019-06-08T20:32:04.586Z,77.40
2019-06-08T20:34:37.606Z,77.40
2019-06-08T20:37:08.304Z,77.20
2019-06-08T20:39:39.601Z,77.40
2019-06-08T20:42:11.978Z,77.00
2019-06-08T20:44:43.918Z,78.00
2019-06-08T20:47:20.387Z,77.60
2019-06-08T20:49:49.316Z,77.30
2019-06-08T20:52:20.099Z,78.10
2019-06-08T20:54:52.301Z,78.30
2019-06-08T20:57:23.711Z,78.30
2019-06-08T20:59:55.807Z,77.60
2019-06-08T21:02:28.490Z,78.30
2019-06-08T21:05:00.053Z,78.10
2019-06-08T21:07:30.829Z,78.40
2019-06-08T21:10:02.250Z,78.10
2019-06-08T21:12:33.180Z,78.00
2019-06-08T21:15:04.082Z,77.60
2019-06-08T21:17:35.277Z,78.00
2019-06-08T21:20:08.474Z,78.70
2019-06-08T21:22:39.680Z,78.80
2019-06-08T21:25:10.931Z,78.70
2019-06-08T21:27:42.487Z,78.80
2019-06-08T21:30:21.605Z,78.10
2019-06-08T21:32:50.308Z,78.40
2019-06-08T21:35:19.239Z,79.30
2019-06-08T21:37:52.185Z,78.60
2019-06-08T21:40:22.746Z,79.70
2019-06-08T21:42:55.333Z,80.20
2019-06-08T21:45:27.603Z,79.20
2019-06-08T21:48:00.312Z,79.80
2019-06-08T21:50:31.630Z,80.10
2019-06-08T21:53:02.580Z,79.70
2019-06-08T21:55:33.611Z,79.20
2019-06-08T21:58:04.572Z,79.20
2019-06-08T22:00:42.799Z,79.50
2019-06-08T22:03:09.095Z,79.00
2019-06-08T22:05:40.790Z,79.60
2019-06-08T22:08:12.130Z,79.70
2019-06-08T22:10:43.267Z,80.10
2019-06-08T22:13:14.508Z,80.30
2019-06-08T22:15:47.430Z,80.40
2019-06-08T22:18:18.566Z,79.90
2019-06-08T22:20:51.712Z,80.00
2019-06-08T22:23:22.119Z,80.50
2019-06-08T22:25:53.523Z,82.00
2019-06-08T22:28:26.950Z,82.00
2019-06-08T22:30:59.894Z,80.90
2019-06-08T22:33:32.581Z,80.40
2019-06-08T22:36:03.725Z,80.20
2019-06-08T22:38:37.182Z,79.90
2019-06-08T22:41:08.082Z,80.80
2019-06-08T22:43:39.210Z,82.10
2019-06-08T22:46:10.649Z,82.80
2019-06-08T22:48:41.543Z,82.20
2019-06-08T22:51:12.532Z,82.60
2019-06-08T22:53:43.764Z,82.40
2019-06-08T22:56:14.994Z,82.90
2019-06-08T22:58:47.864Z,82.60
2019-06-08T23:01:18.561Z,83.30
2019-06-08T23:03:49.900Z,82.40
2019-06-08T23:06:20.963Z,82.30
2019-06-08T23:08:51.915Z,82.80
2019-06-08T23:11:23.026Z,82.50
2019-06-08T23:13:54.323Z,82.80
2019-06-08T23:16:27.165Z,82.80
2019-06-08T23:18:58.874Z,82.30
2019-06-08T23:21:30.549Z,82.60
2019-06-08T23:24:02.496Z,82.40
2019-06-08T23:26:37.120Z,82.20
2019-06-08T23:29:09.229Z,82.30
2019-06-08T23:31:39.335Z,82.00
2019-06-08T23:34:11.630Z,82.00
2019-06-08T23:36:58.322Z,82.30
2019-06-08T23:39:18.020Z,82.10
2019-06-08T23:41:48.645Z,81.80
2019-06-08T23:44:19.588Z,82.00
2019-06-08T23:46:50.996Z,81.00
2019-06-08T23:49:22.965Z,81.70
2019-06-08T23:51:54.180Z,81.30
2019-06-08T23:54:28.204Z,82.50
2019-06-08T23:57:02.856Z,80.80
2019-06-08T23:59:33.838Z,81.60
